sensor_id;sensor_type;location;lat;lon;timestamp;P1;durP1;ratioP1;P2;durP2;ratioP2
74510;SDS011;62991;50.040;18.400;2022-09-09T00:04:28;10.32;;;5.20;;
74510;SDS011;62991;50.040;18.400;2022-09-09T00:07:41;10.95;;;4.50;;
74510;SDS011;62991;50.040;18.400;2022-09-09T00:10:45;8.80;;;4.03;;
74510;SDS011;62991;50.040;18.400;2022-09-09T00:13:59;9.80;;;4.60;;
74510;SDS011;62991;50.040;18.400;2022-09-09T00:17:11;34.42;;;4.97;;
74510;SDS011;62991;50.040;18.400;2022-09-09T00:20:21;14.52;;;4.22;;
74510;SDS011;62991;50.040;18.400;2022-09-09T00:23:44;10.93;;;5.00;;
74510;SDS011;62991;50.040;18.400;2022-09-09T00:26:53;8.80;;;4.38;;
74510;SDS011;62991;50.040;18.400;2022-09-09T00:30:20;20.92;;;4.15;;
74510;SDS011;62991;50.040;18.400;2022-09-09T00:33:24;11.45;;;4.38;;
74510;SDS011;62991;50.040;18.400;2022-09-09T00:36:27;10.48;;;3.78;;
74510;SDS011;62991;50.040;18.400;2022-09-09T00:39:34;6.90;;;3.80;;
74510;SDS011;62991;50.040;18.400;2022-09-09T00:42:42;11.57;;;4.25;;
74510;SDS011;62991;50.040;18.400;2022-09-09T01:00:15;16.02;;;4.85;;
74510;SDS011;62991;50.040;18.400;2022-09-09T01:06:48;32.97;;;4.25;;
74510;SDS011;62991;50.040;18.400;2022-09-09T01:10:02;12.80;;;3.45;;
74510;SDS011;62991;50.040;18.400;2022-09-09T01:13:16;42.60;;;6.13;;
74510;SDS011;62991;50.040;18.400;2022-09-09T01:16:33;9.02;;;3.40;;
74510;SDS011;62991;50.040;18.400;2022-09-09T01:23:00;6.22;;;3.17;;
74510;SDS011;62991;50.040;18.400;2022-09-09T01:29:33;6.60;;;3.40;;
74510;SDS011;62991;50.040;18.400;2022-09-09T01:38:55;8.48;;;3.83;;
74510;SDS011;62991;50.040;18.400;2022-09-09T01:41:56;7.32;;;3.25;;
74510;SDS011;62991;50.040;18.400;2022-09-09T01:44:57;6.32;;;3.40;;
74510;SDS011;62991;50.040;18.400;2022-09-09T01:47:58;8.00;;;3.95;;
74510;SDS011;62991;50.040;18.400;2022-09-09T01:51:00;6.97;;;3.85;;
74510;SDS011;62991;50.040;18.400;2022-09-09T01:54:01;7.63;;;4.10;;
74510;SDS011;62991;50.040;18.400;2022-09-09T02:00:21;11.65;;;4.10;;
74510;SDS011;62991;50.040;18.400;2022-09-09T02:03:31;7.25;;;4.38;;
74510;SDS011;62991;50.040;18.400;2022-09-09T02:06:38;8.02;;;4.20;;
74510;SDS011;62991;50.040;18.400;2022-09-09T02:09:40;11.35;;;4.38;;
74510;SDS011;62991;50.040;18.400;2022-09-09T02:12:48;9.23;;;4.43;;
74510;SDS011;62991;50.040;18.400;2022-09-09T02:15:56;8.82;;;4.50;;
74510;SDS011;62991;50.040;18.400;2022-09-09T02:22:27;9.27;;;4.45;;
74510;SDS011;62991;50.040;18.400;2022-09-09T02:25:34;7.57;;;4.63;;
74510;SDS011;62991;50.040;18.400;2022-09-09T02:28:36;7.25;;;3.88;;
74510;SDS011;62991;50.040;18.400;2022-09-09T02:31:39;9.32;;;4.80;;
74510;SDS011;62991;50.040;18.400;2022-09-09T02:34:45;11.00;;;4.57;;
74510;SDS011;62991;50.040;18.400;2022-09-09T02:37:49;7.15;;;4.20;;
74510;SDS011;62991;50.040;18.400;2022-09-09T02:40:52;8.00;;;4.70;;
74510;SDS011;62991;50.040;18.400;2022-09-09T02:43:53;8.23;;;4.28;;
74510;SDS011;62991;50.040;18.400;2022-09-09T02:56:09;8.60;;;4.72;;
74510;SDS011;62991;50.040;18.400;2022-09-09T02:59:17;15.38;;;6.07;;
74510;SDS011;62991;50.040;18.400;2022-09-09T03:02:18;8.85;;;4.68;;
74510;SDS011;62991;50.040;18.400;2022-09-09T03:05:19;9.05;;;4.82;;
74510;SDS011;62991;50.040;18.400;2022-09-09T03:08:20;10.30;;;4.63;;
74510;SDS011;62991;50.040;18.400;2022-09-09T03:11:21;8.48;;;4.47;;
74510;SDS011;62991;50.040;18.400;2022-09-09T03:14:22;12.02;;;4.53;;
74510;SDS011;62991;50.040;18.400;2022-09-09T03:17:25;8.38;;;4.45;;
74510;SDS011;62991;50.040;18.400;2022-09-09T03:20:28;9.10;;;4.78;;
74510;SDS011;62991;50.040;18.400;2022-09-09T03:23:30;9.27;;;4.38;;
74510;SDS011;62991;50.040;18.400;2022-09-09T03:26:31;8.18;;;4.35;;
74510;SDS011;62991;50.040;18.400;2022-09-09T03:29:32;7.68;;;4.55;;
74510;SDS011;62991;50.040;18.400;2022-09-09T03:32:33;8.15;;;4.32;;
74510;SDS011;62991;50.040;18.400;2022-09-09T03:35:33;11.48;;;4.65;;
74510;SDS011;62991;50.040;18.400;2022-09-09T03:38:34;7.78;;;4.07;;
74510;SDS011;62991;50.040;18.400;2022-09-09T03:41:35;9.48;;;4.78;;
74510;SDS011;62991;50.040;18.400;2022-09-09T03:44:37;10.35;;;4.72;;
74510;SDS011;62991;50.040;18.400;2022-09-09T03:47:38;9.23;;;5.18;;
74510;SDS011;62991;50.040;18.400;2022-09-09T03:50:38;9.88;;;5.40;;
74510;SDS011;62991;50.040;18.400;2022-09-09T03:53:39;9.48;;;5.07;;
74510;SDS011;62991;50.040;18.400;2022-09-09T03:56:40;13.15;;;5.35;;
74510;SDS011;62991;50.040;18.400;2022-09-09T03:59:41;9.48;;;5.00;;
74510;SDS011;62991;50.040;18.400;2022-09-09T04:02:43;11.40;;;4.25;;
74510;SDS011;62991;50.040;18.400;2022-09-09T04:05:43;9.40;;;4.72;;
74510;SDS011;62991;50.040;18.400;2022-09-09T04:08:44;8.68;;;4.82;;
74510;SDS011;62991;50.040;18.400;2022-09-09T04:11:45;8.48;;;5.05;;
74510;SDS011;62991;50.040;18.400;2022-09-09T04:14:46;10.13;;;5.22;;
74510;SDS011;62991;50.040;18.400;2022-09-09T04:17:47;13.50;;;5.40;;
74510;SDS011;62991;50.040;18.400;2022-09-09T04:20:51;9.55;;;5.85;;
74510;SDS011;62991;50.040;18.400;2022-09-09T04:23:52;11.70;;;5.75;;
74510;SDS011;62991;50.040;18.400;2022-09-09T04:26:53;10.88;;;4.88;;
74510;SDS011;62991;50.040;18.400;2022-09-09T04:29:54;10.18;;;5.18;;
74510;SDS011;62991;50.040;18.400;2022-09-09T04:32:56;10.68;;;5.28;;
74510;SDS011;62991;50.040;18.400;2022-09-09T04:35:57;12.55;;;4.97;;
74510;SDS011;62991;50.040;18.400;2022-09-09T04:38:58;16.63;;;6.28;;
74510;SDS011;62991;50.040;18.400;2022-09-09T04:41:59;10.38;;;5.70;;
74510;SDS011;62991;50.040;18.400;2022-09-09T04:44:59;13.65;;;5.30;;
74510;SDS011;62991;50.040;18.400;2022-09-09T04:48:01;10.05;;;6.15;;
74510;SDS011;62991;50.040;18.400;2022-09-09T04:51:06;12.70;;;6.75;;
74510;SDS011;62991;50.040;18.400;2022-09-09T04:54:09;11.93;;;5.60;;
74510;SDS011;62991;50.040;18.400;2022-09-09T04:57:11;12.23;;;4.97;;
74510;SDS011;62991;50.040;18.400;2022-09-09T05:00:12;11.02;;;4.80;;
74510;SDS011;62991;50.040;18.400;2022-09-09T05:03:13;8.98;;;5.43;;
74510;SDS011;62991;50.040;18.400;2022-09-09T05:06:15;8.40;;;4.75;;
74510;SDS011;62991;50.040;18.400;2022-09-09T05:09:17;6.50;;;3.97;;
74510;SDS011;62991;50.040;18.400;2022-09-09T05:12:18;9.27;;;4.32;;
74510;SDS011;62991;50.040;18.400;2022-09-09T05:15:19;10.05;;;5.13;;
74510;SDS011;62991;50.040;18.400;2022-09-09T05:18:21;11.88;;;5.28;;
74510;SDS011;62991;50.040;18.400;2022-09-09T05:21:23;10.52;;;4.93;;
74510;SDS011;62991;50.040;18.400;2022-09-09T05:24:28;8.02;;;5.15;;
74510;SDS011;62991;50.040;18.400;2022-09-09T05:27:29;9.52;;;4.63;;
74510;SDS011;62991;50.040;18.400;2022-09-09T05:30:33;10.27;;;4.80;;
74510;SDS011;62991;50.040;18.400;2022-09-09T05:33:34;8.15;;;4.57;;
74510;SDS011;62991;50.040;18.400;2022-09-09T05:36:36;10.75;;;4.95;;
74510;SDS011;62991;50.040;18.400;2022-09-09T05:39:37;8.75;;;4.82;;
74510;SDS011;62991;50.040;18.400;2022-09-09T05:42:37;12.68;;;5.88;;
74510;SDS011;62991;50.040;18.400;2022-09-09T05:45:39;13.88;;;5.93;;
74510;SDS011;62991;50.040;18.400;2022-09-09T05:48:40;12.45;;;6.40;;
74510;SDS011;62991;50.040;18.400;2022-09-09T05:51:42;13.90;;;5.82;;
74510;SDS011;62991;50.040;18.400;2022-09-09T05:54:43;11.15;;;4.65;;
74510;SDS011;62991;50.040;18.400;2022-09-09T05:57:47;11.55;;;5.43;;
74510;SDS011;62991;50.040;18.400;2022-09-09T06:00:49;11.88;;;5.22;;
74510;SDS011;62991;50.040;18.400;2022-09-09T06:03:50;9.13;;;5.28;;
74510;SDS011;62991;50.040;18.400;2022-09-09T06:06:52;10.10;;;4.78;;
74510;SDS011;62991;50.040;18.400;2022-09-09T06:09:52;7.88;;;4.40;;
74510;SDS011;62991;50.040;18.400;2022-09-09T06:12:53;9.85;;;4.20;;
74510;SDS011;62991;50.040;18.400;2022-09-09T06:15:54;10.93;;;5.20;;
74510;SDS011;62991;50.040;18.400;2022-09-09T06:18:56;10.23;;;4.90;;
74510;SDS011;62991;50.040;18.400;2022-09-09T06:21:57;12.38;;;4.00;;
74510;SDS011;62991;50.040;18.400;2022-09-09T06:24:58;11.80;;;4.63;;
74510;SDS011;62991;50.040;18.400;2022-09-09T06:28:01;7.38;;;4.03;;
74510;SDS011;62991;50.040;18.400;2022-09-09T06:31:06;8.00;;;4.10;;
74510;SDS011;62991;50.040;18.400;2022-09-09T06:34:08;11.73;;;4.82;;
74510;SDS011;62991;50.040;18.400;2022-09-09T06:37:09;8.18;;;3.95;;
74510;SDS011;62991;50.040;18.400;2022-09-09T06:40:10;7.45;;;3.80;;
74510;SDS011;62991;50.040;18.400;2022-09-09T06:43:11;9.15;;;4.05;;
74510;SDS011;62991;50.040;18.400;2022-09-09T06:49:17;6.38;;;3.65;;
74510;SDS011;62991;50.040;18.400;2022-09-09T06:52:18;7.68;;;3.83;;
74510;SDS011;62991;50.040;18.400;2022-09-09T06:55:18;9.70;;;3.95;;
74510;SDS011;62991;50.040;18.400;2022-09-09T06:58:20;6.30;;;3.58;;
74510;SDS011;62991;50.040;18.400;2022-09-09T07:01:25;6.75;;;3.60;;
74510;SDS011;62991;50.040;18.400;2022-09-09T07:04:27;6.40;;;3.75;;
74510;SDS011;62991;50.040;18.400;2022-09-09T07:07:28;7.25;;;3.70;;
74510;SDS011;62991;50.040;18.400;2022-09-09T07:10:30;7.55;;;4.22;;
74510;SDS011;62991;50.040;18.400;2022-09-09T07:13:31;6.78;;;3.38;;
74510;SDS011;62991;50.040;18.400;2022-09-09T07:16:33;9.80;;;4.47;;
74510;SDS011;62991;50.040;18.400;2022-09-09T07:19:37;9.98;;;4.47;;
74510;SDS011;62991;50.040;18.400;2022-09-09T07:22:37;10.05;;;4.18;;
74510;SDS011;62991;50.040;18.400;2022-09-09T07:25:43;9.18;;;4.15;;
74510;SDS011;62991;50.040;18.400;2022-09-09T07:28:45;9.57;;;4.18;;
74510;SDS011;62991;50.040;18.400;2022-09-09T07:31:46;7.68;;;4.15;;
74510;SDS011;62991;50.040;18.400;2022-09-09T07:34:48;8.98;;;4.45;;
74510;SDS011;62991;50.040;18.400;2022-09-09T07:37:50;6.97;;;3.75;;
74510;SDS011;62991;50.040;18.400;2022-09-09T07:40:50;7.57;;;4.32;;
74510;SDS011;62991;50.040;18.400;2022-09-09T07:43:51;9.40;;;4.13;;
74510;SDS011;62991;50.040;18.400;2022-09-09T07:46:53;8.18;;;4.05;;
74510;SDS011;62991;50.040;18.400;2022-09-09T07:49:54;6.75;;;3.63;;
74510;SDS011;62991;50.040;18.400;2022-09-09T07:52:55;6.45;;;3.50;;
74510;SDS011;62991;50.040;18.400;2022-09-09T07:56:02;7.68;;;3.53;;
74510;SDS011;62991;50.040;18.400;2022-09-09T07:59:04;8.40;;;4.15;;
74510;SDS011;62991;50.040;18.400;2022-09-09T08:02:06;7.95;;;4.15;;
74510;SDS011;62991;50.040;18.400;2022-09-09T08:05:07;6.63;;;3.55;;
74510;SDS011;62991;50.040;18.400;2022-09-09T08:08:08;8.30;;;3.47;;
74510;SDS011;62991;50.040;18.400;2022-09-09T08:11:10;4.97;;;3.17;;
74510;SDS011;62991;50.040;18.400;2022-09-09T08:14:13;4.43;;;2.90;;
74510;SDS011;62991;50.040;18.400;2022-09-09T08:17:14;6.15;;;3.28;;
74510;SDS011;62991;50.040;18.400;2022-09-09T08:20:15;6.82;;;3.30;;
74510;SDS011;62991;50.040;18.400;2022-09-09T08:23:16;8.52;;;3.13;;
74510;SDS011;62991;50.040;18.400;2022-09-09T08:26:21;6.38;;;3.67;;
74510;SDS011;62991;50.040;18.400;2022-09-09T08:29:23;5.90;;;3.38;;
74510;SDS011;62991;50.040;18.400;2022-09-09T08:32:24;5.90;;;3.42;;
74510;SDS011;62991;50.040;18.400;2022-09-09T08:35:26;6.93;;;3.88;;
74510;SDS011;62991;50.040;18.400;2022-09-09T08:38:27;6.18;;;3.35;;
74510;SDS011;62991;50.040;18.400;2022-09-09T08:48:22;8.00;;;4.05;;
74510;SDS011;62991;50.040;18.400;2022-09-09T08:51:27;7.07;;;3.47;;
74510;SDS011;62991;50.040;18.400;2022-09-09T08:54:31;7.45;;;3.72;;
74510;SDS011;62991;50.040;18.400;2022-09-09T08:57:36;7.80;;;3.97;;
74510;SDS011;62991;50.040;18.400;2022-09-09T09:00:41;11.35;;;4.43;;
74510;SDS011;62991;50.040;18.400;2022-09-09T09:04:15;7.70;;;4.22;;
74510;SDS011;62991;50.040;18.400;2022-09-09T09:10:46;7.72;;;3.80;;
74510;SDS011;62991;50.040;18.400;2022-09-09T09:14:00;5.90;;;3.10;;
74510;SDS011;62991;50.040;18.400;2022-09-09T09:17:09;6.13;;;3.80;;
74510;SDS011;62991;50.040;18.400;2022-09-09T09:20:14;7.22;;;3.67;;
74510;SDS011;62991;50.040;18.400;2022-09-09T09:23:19;7.63;;;3.53;;
74510;SDS011;62991;50.040;18.400;2022-09-09T09:26:33;7.85;;;3.22;;
74510;SDS011;62991;50.040;18.400;2022-09-09T09:29:35;4.72;;;2.83;;
74510;SDS011;62991;50.040;18.400;2022-09-09T09:32:37;6.20;;;3.08;;
74510;SDS011;62991;50.040;18.400;2022-09-09T09:35:43;4.05;;;2.70;;
74510;SDS011;62991;50.040;18.400;2022-09-09T09:38:59;6.45;;;3.13;;
74510;SDS011;62991;50.040;18.400;2022-09-09T09:42:12;6.68;;;3.30;;
74510;SDS011;62991;50.040;18.400;2022-09-09T09:45:26;4.80;;;2.58;;
74510;SDS011;62991;50.040;18.400;2022-09-09T09:48:56;5.75;;;2.75;;
74510;SDS011;62991;50.040;18.400;2022-09-09T09:52:06;5.88;;;3.25;;
74510;SDS011;62991;50.040;18.400;2022-09-09T09:55:12;7.13;;;2.75;;
74510;SDS011;62991;50.040;18.400;2022-09-09T09:58:14;6.50;;;2.72;;
74510;SDS011;62991;50.040;18.400;2022-09-09T10:01:20;3.72;;;2.10;;
74510;SDS011;62991;50.040;18.400;2022-09-09T10:04:29;3.17;;;1.90;;
74510;SDS011;62991;50.040;18.400;2022-09-09T10:07:30;3.08;;;1.77;;
74510;SDS011;62991;50.040;18.400;2022-09-09T10:17:18;5.28;;;1.75;;
74510;SDS011;62991;50.040;18.400;2022-09-09T10:27:19;3.58;;;1.85;;
74510;SDS011;62991;50.040;18.400;2022-09-09T10:30:31;5.78;;;2.10;;
74510;SDS011;62991;50.040;18.400;2022-09-09T10:37:37;3.00;;;1.73;;
74510;SDS011;62991;50.040;18.400;2022-09-09T10:53:56;3.05;;;1.27;;
74510;SDS011;62991;50.040;18.400;2022-09-09T10:57:27;2.90;;;1.60;;
74510;SDS011;62991;50.040;18.400;2022-09-09T11:03:43;1.67;;;0.90;;
74510;SDS011;62991;50.040;18.400;2022-09-09T11:06:48;2.95;;;1.60;;
74510;SDS011;62991;50.040;18.400;2022-09-09T11:09:57;4.50;;;1.83;;
74510;SDS011;62991;50.040;18.400;2022-09-09T11:13:02;2.58;;;1.10;;
74510;SDS011;62991;50.040;18.400;2022-09-09T11:16:17;2.10;;;1.05;;
74510;SDS011;62991;50.040;18.400;2022-09-09T11:19:41;1.92;;;1.10;;
74510;SDS011;62991;50.040;18.400;2022-09-09T11:22:48;2.47;;;1.30;;
74510;SDS011;62991;50.040;18.400;2022-09-09T11:25:56;1.85;;;0.77;;
74510;SDS011;62991;50.040;18.400;2022-09-09T11:29:11;1.30;;;0.90;;
74510;SDS011;62991;50.040;18.400;2022-09-09T11:42:20;1.52;;;1.05;;
74510;SDS011;62991;50.040;18.400;2022-09-09T11:45:24;1.25;;;0.68;;
74510;SDS011;62991;50.040;18.400;2022-09-09T11:48:35;0.85;;;0.68;;
74510;SDS011;62991;50.040;18.400;2022-09-09T11:51:36;2.05;;;1.00;;
74510;SDS011;62991;50.040;18.400;2022-09-09T11:54:44;1.42;;;0.98;;
74510;SDS011;62991;50.040;18.400;2022-09-09T11:57:47;3.05;;;1.30;;
74510;SDS011;62991;50.040;18.400;2022-09-09T12:00:48;1.88;;;1.10;;
74510;SDS011;62991;50.040;18.400;2022-09-09T12:03:50;2.25;;;0.93;;
74510;SDS011;62991;50.040;18.400;2022-09-09T12:07:05;1.88;;;0.80;;
74510;SDS011;62991;50.040;18.400;2022-09-09T12:10:29;3.47;;;0.80;;
74510;SDS011;62991;50.040;18.400;2022-09-09T12:13:32;3.05;;;1.13;;
74510;SDS011;62991;50.040;18.400;2022-09-09T12:16:34;1.00;;;0.70;;
74510;SDS011;62991;50.040;18.400;2022-09-09T12:19:38;2.00;;;1.00;;
74510;SDS011;62991;50.040;18.400;2022-09-09T12:32:42;1.50;;;0.88;;
74510;SDS011;62991;50.040;18.400;2022-09-09T12:35:45;4.25;;;1.08;;
74510;SDS011;62991;50.040;18.400;2022-09-09T12:38:53;1.80;;;1.05;;
74510;SDS011;62991;50.040;18.400;2022-09-09T12:41:58;3.70;;;1.00;;
74510;SDS011;62991;50.040;18.400;2022-09-09T12:45:00;2.40;;;0.95;;
74510;SDS011;62991;50.040;18.400;2022-09-09T12:48:03;1.77;;;1.00;;
74510;SDS011;62991;50.040;18.400;2022-09-09T12:51:28;2.75;;;1.13;;
74510;SDS011;62991;50.040;18.400;2022-09-09T12:54:31;2.25;;;1.08;;
74510;SDS011;62991;50.040;18.400;2022-09-09T12:57:35;4.90;;;1.05;;
74510;SDS011;62991;50.040;18.400;2022-09-09T13:00:48;2.28;;;0.80;;
74510;SDS011;62991;50.040;18.400;2022-09-09T13:03:52;1.23;;;0.90;;
74510;SDS011;62991;50.040;18.400;2022-09-09T13:06:53;1.13;;;0.73;;
74510;SDS011;62991;50.040;18.400;2022-09-09T13:09:55;2.65;;;0.90;;
74510;SDS011;62991;50.040;18.400;2022-09-09T13:12:57;2.50;;;0.90;;
74510;SDS011;62991;50.040;18.400;2022-09-09T13:16:01;1.27;;;0.75;;
74510;SDS011;62991;50.040;18.400;2022-09-09T13:19:37;4.07;;;0.77;;
74510;SDS011;62991;50.040;18.400;2022-09-09T13:25:35;1.60;;;0.93;;
74510;SDS011;62991;50.040;18.400;2022-09-09T13:28:36;2.42;;;0.80;;
74510;SDS011;62991;50.040;18.400;2022-09-09T13:31:37;1.67;;;0.80;;
74510;SDS011;62991;50.040;18.400;2022-09-09T13:34:38;1.67;;;0.90;;
74510;SDS011;62991;50.040;18.400;2022-09-09T13:37:39;2.00;;;0.90;;
74510;SDS011;62991;50.040;18.400;2022-09-09T13:40:51;1.58;;;1.00;;
74510;SDS011;62991;50.040;18.400;2022-09-09T13:44:28;1.90;;;0.93;;
74510;SDS011;62991;50.040;18.400;2022-09-09T13:47:34;1.70;;;0.90;;
74510;SDS011;62991;50.040;18.400;2022-09-09T13:50:36;1.63;;;0.80;;
74510;SDS011;62991;50.040;18.400;2022-09-09T13:53:36;3.65;;;0.95;;
74510;SDS011;62991;50.040;18.400;2022-09-09T13:56:38;2.47;;;1.05;;
74510;SDS011;62991;50.040;18.400;2022-09-09T13:59:40;3.03;;;0.95;;
74510;SDS011;62991;50.040;18.400;2022-09-09T14:02:40;1.00;;;0.70;;
74510;SDS011;62991;50.040;18.400;2022-09-09T14:05:41;2.72;;;0.98;;
74510;SDS011;62991;50.040;18.400;2022-09-09T14:08:43;1.40;;;0.80;;
74510;SDS011;62991;50.040;18.400;2022-09-09T14:11:45;2.50;;;1.10;;
74510;SDS011;62991;50.040;18.400;2022-09-09T14:14:46;2.00;;;1.08;;
74510;SDS011;62991;50.040;18.400;2022-09-09T14:17:47;1.23;;;0.80;;
74510;SDS011;62991;50.040;18.400;2022-09-09T14:20:48;1.52;;;0.70;;
74510;SDS011;62991;50.040;18.400;2022-09-09T14:23:50;1.65;;;0.80;;
74510;SDS011;62991;50.040;18.400;2022-09-09T14:26:51;2.05;;;1.00;;
74510;SDS011;62991;50.040;18.400;2022-09-09T14:29:52;3.72;;;0.88;;
74510;SDS011;62991;50.040;18.400;2022-09-09T14:32:53;2.13;;;1.02;;
74510;SDS011;62991;50.040;18.400;2022-09-09T14:35:57;1.40;;;0.90;;
74510;SDS011;62991;50.040;18.400;2022-09-09T14:38:59;1.38;;;0.80;;
74510;SDS011;62991;50.040;18.400;2022-09-09T14:42:00;1.50;;;0.80;;
74510;SDS011;62991;50.040;18.400;2022-09-09T14:45:02;1.30;;;0.80;;
74510;SDS011;62991;50.040;18.400;2022-09-09T14:48:03;1.48;;;0.93;;
74510;SDS011;62991;50.040;18.400;2022-09-09T14:51:14;2.17;;;0.93;;
74510;SDS011;62991;50.040;18.400;2022-09-09T14:54:19;2.58;;;0.90;;
74510;SDS011;62991;50.040;18.400;2022-09-09T14:57:22;5.72;;;1.02;;
74510;SDS011;62991;50.040;18.400;2022-09-09T15:00:23;1.73;;;1.00;;
74510;SDS011;62991;50.040;18.400;2022-09-09T15:03:25;1.63;;;0.80;;
74510;SDS011;62991;50.040;18.400;2022-09-09T15:06:27;1.95;;;1.00;;
74510;SDS011;62991;50.040;18.400;2022-09-09T15:09:29;2.78;;;1.20;;
74510;SDS011;62991;50.040;18.400;2022-09-09T15:12:30;4.00;;;1.30;;
74510;SDS011;62991;50.040;18.400;2022-09-09T15:15:33;3.40;;;1.10;;
74510;SDS011;62991;50.040;18.400;2022-09-09T15:18:35;2.08;;;1.10;;
74510;SDS011;62991;50.040;18.400;2022-09-09T15:21:37;2.03;;;1.08;;
74510;SDS011;62991;50.040;18.400;2022-09-09T15:24:38;2.63;;;0.90;;
74510;SDS011;62991;50.040;18.400;2022-09-09T15:27:39;3.05;;;1.10;;
74510;SDS011;62991;50.040;18.400;2022-09-09T15:30:40;3.20;;;1.00;;
74510;SDS011;62991;50.040;18.400;2022-09-09T15:33:41;2.15;;;1.00;;
74510;SDS011;62991;50.040;18.400;2022-09-09T15:36:43;1.00;;;0.70;;
74510;SDS011;62991;50.040;18.400;2022-09-09T15:42:46;1.95;;;1.02;;
74510;SDS011;62991;50.040;18.400;2022-09-09T15:45:49;3.22;;;1.33;;
74510;SDS011;62991;50.040;18.400;2022-09-09T15:48:58;2.60;;;1.45;;
74510;SDS011;62991;50.040;18.400;2022-09-09T15:52:03;3.33;;;1.85;;
74510;SDS011;62991;50.040;18.400;2022-09-09T15:55:05;2.38;;;1.42;;
74510;SDS011;62991;50.040;18.400;2022-09-09T15:58:06;2.53;;;1.40;;
74510;SDS011;62991;50.040;18.400;2022-09-09T16:01:08;2.65;;;1.70;;
74510;SDS011;62991;50.040;18.400;2022-09-09T16:04:11;2.53;;;1.27;;
74510;SDS011;62991;50.040;18.400;2022-09-09T16:07:12;2.88;;;1.23;;
74510;SDS011;62991;50.040;18.400;2022-09-09T16:10:13;1.80;;;1.25;;
74510;SDS011;62991;50.040;18.400;2022-09-09T16:13:14;3.63;;;1.40;;
74510;SDS011;62991;50.040;18.400;2022-09-09T16:16:15;2.42;;;1.30;;
74510;SDS011;62991;50.040;18.400;2022-09-09T16:19:19;2.15;;;1.23;;
74510;SDS011;62991;50.040;18.400;2022-09-09T16:22:21;4.15;;;1.42;;
74510;SDS011;62991;50.040;18.400;2022-09-09T16:25:22;4.53;;;1.50;;
74510;SDS011;62991;50.040;18.400;2022-09-09T16:28:23;2.33;;;1.23;;
74510;SDS011;62991;50.040;18.400;2022-09-09T16:31:24;2.65;;;1.35;;
74510;SDS011;62991;50.040;18.400;2022-09-09T16:34:25;2.63;;;1.50;;
74510;SDS011;62991;50.040;18.400;2022-09-09T16:37:26;3.83;;;1.40;;
74510;SDS011;62991;50.040;18.400;2022-09-09T16:40:27;3.58;;;1.50;;
74510;SDS011;62991;50.040;18.400;2022-09-09T16:43:28;2.65;;;1.55;;
74510;SDS011;62991;50.040;18.400;2022-09-09T16:46:29;3.88;;;1.85;;
74510;SDS011;62991;50.040;18.400;2022-09-09T16:49:32;3.67;;;1.88;;
74510;SDS011;62991;50.040;18.400;2022-09-09T16:52:33;4.80;;;1.90;;
74510;SDS011;62991;50.040;18.400;2022-09-09T16:55:40;5.07;;;2.10;;
74510;SDS011;62991;50.040;18.400;2022-09-09T16:58:42;5.65;;;2.90;;
74510;SDS011;62991;50.040;18.400;2022-09-09T17:01:45;6.90;;;2.95;;
74510;SDS011;62991;50.040;18.400;2022-09-09T17:04:48;6.28;;;2.47;;
74510;SDS011;62991;50.040;18.400;2022-09-09T17:07:48;6.10;;;2.00;;
74510;SDS011;62991;50.040;18.400;2022-09-09T17:10:49;3.90;;;1.85;;
74510;SDS011;62991;50.040;18.400;2022-09-09T17:13:50;4.70;;;2.28;;
74510;SDS011;62991;50.040;18.400;2022-09-09T17:16:52;5.90;;;1.98;;
74510;SDS011;62991;50.040;18.400;2022-09-09T17:19:53;5.32;;;2.10;;
74510;SDS011;62991;50.040;18.400;2022-09-09T17:22:53;2.92;;;1.98;;
74510;SDS011;62991;50.040;18.400;2022-09-09T17:25:58;5.00;;;1.80;;
74510;SDS011;62991;50.040;18.400;2022-09-09T17:29:00;5.00;;;2.40;;
74510;SDS011;62991;50.040;18.400;2022-09-09T17:32:02;8.27;;;2.40;;
74510;SDS011;62991;50.040;18.400;2022-09-09T17:35:05;4.07;;;2.50;;
74510;SDS011;62991;50.040;18.400;2022-09-09T17:38:06;5.53;;;2.08;;
74510;SDS011;62991;50.040;18.400;2022-09-09T17:41:08;5.93;;;2.65;;
74510;SDS011;62991;50.040;18.400;2022-09-09T17:44:09;5.85;;;3.08;;
74510;SDS011;62991;50.040;18.400;2022-09-09T17:47:10;5.80;;;2.72;;
74510;SDS011;62991;50.040;18.400;2022-09-09T17:50:10;8.00;;;3.05;;
74510;SDS011;62991;50.040;18.400;2022-09-09T17:53:12;7.90;;;3.40;;
74510;SDS011;62991;50.040;18.400;2022-09-09T17:56:14;7.60;;;3.17;;
74510;SDS011;62991;50.040;18.400;2022-09-09T17:59:16;5.40;;;2.53;;
74510;SDS011;62991;50.040;18.400;2022-09-09T18:02:18;7.28;;;2.75;;
74510;SDS011;62991;50.040;18.400;2022-09-09T18:05:19;6.43;;;2.72;;
74510;SDS011;62991;50.040;18.400;2022-09-09T18:08:20;5.60;;;2.47;;
74510;SDS011;62991;50.040;18.400;2022-09-09T18:11:22;4.00;;;2.20;;
74510;SDS011;62991;50.040;18.400;2022-09-09T18:14:26;11.27;;;3.70;;
74510;SDS011;62991;50.040;18.400;2022-09-09T18:17:30;6.53;;;3.10;;
74510;SDS011;62991;50.040;18.400;2022-09-09T18:20:31;8.02;;;3.17;;
74510;SDS011;62991;50.040;18.400;2022-09-09T18:23:35;15.18;;;4.43;;
74510;SDS011;62991;50.040;18.400;2022-09-09T18:26:38;10.48;;;4.47;;
74510;SDS011;62991;50.040;18.400;2022-09-09T18:29:40;11.73;;;4.65;;
74510;SDS011;62991;50.040;18.400;2022-09-09T18:32:40;8.60;;;4.13;;
74510;SDS011;62991;50.040;18.400;2022-09-09T18:35:41;9.35;;;3.80;;
74510;SDS011;62991;50.040;18.400;2022-09-09T18:38:43;12.38;;;5.40;;
74510;SDS011;62991;50.040;18.400;2022-09-09T18:41:45;10.57;;;5.00;;
74510;SDS011;62991;50.040;18.400;2022-09-09T18:44:48;11.50;;;4.68;;
74510;SDS011;62991;50.040;18.400;2022-09-09T18:47:49;12.50;;;4.97;;
74510;SDS011;62991;50.040;18.400;2022-09-09T18:50:49;8.63;;;4.00;;
74510;SDS011;62991;50.040;18.400;2022-09-09T18:53:57;8.85;;;3.67;;
74510;SDS011;62991;50.040;18.400;2022-09-09T18:57:00;9.73;;;3.50;;
74510;SDS011;62991;50.040;18.400;2022-09-09T19:00:01;8.25;;;3.45;;
74510;SDS011;62991;50.040;18.400;2022-09-09T19:03:02;5.35;;;2.97;;
74510;SDS011;62991;50.040;18.400;2022-09-09T19:06:04;8.77;;;3.45;;
74510;SDS011;62991;50.040;18.400;2022-09-09T19:09:09;10.30;;;3.90;;
74510;SDS011;62991;50.040;18.400;2022-09-09T19:12:15;11.63;;;4.00;;
74510;SDS011;62991;50.040;18.400;2022-09-09T19:15:16;6.10;;;3.33;;
74510;SDS011;62991;50.040;18.400;2022-09-09T19:18:17;9.48;;;4.07;;
74510;SDS011;62991;50.040;18.400;2022-09-09T19:21:19;5.85;;;3.10;;
74510;SDS011;62991;50.040;18.400;2022-09-09T19:24:31;8.93;;;3.75;;
74510;SDS011;62991;50.040;18.400;2022-09-09T19:27:32;8.10;;;3.42;;
74510;SDS011;62991;50.040;18.400;2022-09-09T19:30:33;5.82;;;3.50;;
74510;SDS011;62991;50.040;18.400;2022-09-09T19:33:35;8.88;;;3.40;;
74510;SDS011;62991;50.040;18.400;2022-09-09T19:36:37;7.28;;;3.67;;
74510;SDS011;62991;50.040;18.400;2022-09-09T19:39:38;10.07;;;3.10;;
74510;SDS011;62991;50.040;18.400;2022-09-09T19:42:38;5.57;;;3.00;;
74510;SDS011;62991;50.040;18.400;2022-09-09T19:45:40;8.05;;;3.45;;
74510;SDS011;62991;50.040;18.400;2022-09-09T19:48:41;9.48;;;3.72;;
74510;SDS011;62991;50.040;18.400;2022-09-09T19:51:42;7.45;;;3.50;;
74510;SDS011;62991;50.040;18.400;2022-09-09T19:54:43;7.18;;;3.08;;
74510;SDS011;62991;50.040;18.400;2022-09-09T19:57:44;5.80;;;2.75;;
74510;SDS011;62991;50.040;18.400;2022-09-09T20:00:45;9.93;;;3.70;;
74510;SDS011;62991;50.040;18.400;2022-09-09T20:03:47;6.78;;;3.20;;
74510;SDS011;62991;50.040;18.400;2022-09-09T20:06:50;10.43;;;3.72;;
74510;SDS011;62991;50.040;18.400;2022-09-09T20:09:52;6.47;;;2.92;;